createdAt,value
2022-12-08T00:01:11.084Z,77.39
2022-12-08T00:03:38.636Z,77.46
2022-12-08T00:06:26.870Z,77.37
2022-12-08T00:09:13.346Z,77.43
2022-12-08T00:11:39.953Z,77.78
2022-12-08T00:14:06.517Z,77.14
2022-12-08T00:16:33.133Z,77.49
2022-12-08T00:18:59.776Z,77.12
2022-12-08T00:21:26.326Z,76.98
2022-12-08T00:23:55.347Z,77.36
2022-12-08T00:26:22.347Z,76.85
2022-12-08T00:28:49.019Z,77.31
2022-12-08T00:31:15.701Z,76.94
2022-12-08T00:33:42.441Z,77.08
2022-12-08T00:36:11.263Z,77.07
2022-12-08T00:38:38.915Z,77.02
2022-12-08T00:41:15.764Z,76.73
2022-12-08T00:43:42.714Z,77.04
2022-12-08T00:46:09.507Z,77.15
2022-12-08T00:48:36.122Z,77.16
2022-12-08T00:51:02.745Z,77.01
2022-12-08T00:53:30.963Z,76.72
2022-12-08T00:55:57.533Z,77.09
2022-12-08T00:58:24.071Z,77.36
2022-12-08T01:00:50.674Z,77.44
2022-12-08T01:03:17.365Z,77.08
2022-12-08T01:05:44.527Z,76.72
2022-12-08T01:08:11.192Z,77.35
2022-12-08T01:10:39.470Z,77.32
2022-12-08T01:13:06.223Z,77.29
2022-12-08T01:15:32.812Z,76.45
2022-12-08T01:17:59.343Z,77.08
2022-12-08T01:20:26.076Z,77.13
2022-12-08T01:22:52.615Z,76.92
2022-12-08T01:25:19.208Z,76.92
2022-12-08T01:27:45.764Z,77.43
2022-12-08T01:30:13.347Z,76.92
2022-12-08T01:32:39.931Z,76.77
2022-12-08T01:35:06.901Z,77.36
2022-12-08T01:37:33.449Z,77.18
2022-12-08T01:40:00.041Z,77.35
2022-12-08T01:42:26.892Z,77.73
2022-12-08T01:44:57.567Z,77.05
2022-12-08T01:47:27.404Z,77.58
2022-12-08T01:49:54.144Z,77.38
2022-12-08T01:52:29.196Z,77.29
2022-12-08T01:55:02.770Z,77.01
2022-12-08T01:57:35.128Z,76.93
2022-12-08T02:00:07.869Z,77.61
2022-12-08T02:02:42.102Z,77.28
2022-12-08T02:05:11.471Z,77.38
2022-12-08T02:07:38.268Z,77.15
2022-12-08T02:10:05.804Z,77.53
2022-12-08T02:12:33.062Z,77.18
2022-12-08T02:15:04.829Z,77.38
2022-12-08T02:17:58.453Z,77.11
2022-12-08T02:20:53.376Z,77.66
2022-12-08T02:23:37.139Z,77.82
2022-12-08T02:29:26.899Z,77.28
2022-12-08T02:34:45.612Z,77.86
2022-12-08T02:37:23.168Z,77.24
2022-12-08T02:42:50.967Z,77.40
2022-12-08T02:45:40.644Z,77.43
2022-12-08T02:48:08.933Z,77.22
2022-12-08T02:50:35.486Z,77.46
2022-12-08T02:53:02.979Z,77.34
2022-12-08T03:03:45.464Z,77.01
2022-12-08T03:06:39.764Z,77.76
2022-12-08T03:09:45.711Z,77.25
2022-12-08T03:14:53.247Z,78.04
2022-12-08T03:17:23.545Z,77.46
2022-12-08T03:19:50.243Z,77.32
2022-12-08T03:22:22.180Z,77.37
2022-12-08T03:24:49.413Z,77.66
2022-12-08T03:27:20.120Z,77.06
2022-12-08T03:29:48.909Z,77.04
2022-12-08T03:34:54.522Z,77.83
2022-12-08T03:37:21.569Z,77.38
2022-12-08T03:39:48.525Z,78.02
2022-12-08T03:42:15.158Z,77.80
2022-12-08T03:44:41.705Z,77.82
2022-12-08T03:47:08.259Z,77.71
2022-12-08T03:49:34.827Z,77.51
2022-12-08T03:52:01.367Z,77.42
2022-12-08T03:54:27.974Z,77.16
2022-12-08T03:56:54.676Z,77.92
2022-12-08T03:59:21.258Z,77.34
2022-12-08T04:01:47.838Z,77.17
2022-12-08T04:04:14.456Z,77.72
2022-12-08T04:06:41.035Z,77.62
2022-12-08T04:09:07.660Z,77.32
2022-12-08T04:11:34.186Z,77.74
2022-12-08T04:14:00.842Z,77.36
2022-12-08T04:16:28.553Z,77.63
2022-12-08T04:18:55.331Z,77.41
2022-12-08T04:21:22.019Z,77.73
2022-12-08T04:23:48.668Z,77.86
2022-12-08T04:26:15.858Z,77.51
2022-12-08T04:28:42.808Z,77.95
2022-12-08T04:31:09.713Z,77.33
2022-12-08T04:33:36.573Z,78.25
2022-12-08T04:36:04.836Z,77.47
2022-12-08T04:38:32.320Z,77.33
2022-12-08T04:40:58.927Z,77.79
2022-12-08T04:43:25.710Z,77.50
2022-12-08T04:45:52.306Z,77.75
2022-12-08T04:48:18.960Z,77.47
2022-12-08T04:50:46.066Z,77.86
2022-12-08T04:53:13.796Z,77.26
2022-12-08T04:55:44.154Z,78.11
2022-12-08T04:58:14.066Z,78.15
2022-12-08T05:00:41.425Z,78.38
2022-12-08T05:03:08.041Z,77.75
2022-12-08T05:05:34.652Z,77.81
2022-12-08T05:08:01.354Z,77.80
2022-12-08T05:10:28.018Z,77.81
2022-12-08T05:12:54.682Z,78.32
2022-12-08T05:15:21.310Z,78.11
2022-12-08T05:17:47.846Z,77.33
2022-12-08T05:20:14.498Z,77.51
2022-12-08T05:22:41.157Z,77.78
2022-12-08T05:25:08.082Z,78.42
2022-12-08T05:27:34.978Z,77.89
2022-12-08T05:30:02.227Z,77.78
2022-12-08T05:32:29.162Z,77.47
2022-12-08T05:34:55.772Z,77.91
2022-12-08T05:37:22.308Z,78.16
2022-12-08T05:39:48.856Z,77.66
2022-12-08T05:42:16.723Z,78.38
2022-12-08T05:44:44.891Z,78.10
2022-12-08T05:47:11.410Z,77.27
2022-12-08T05:49:37.994Z,77.69
2022-12-08T05:52:04.708Z,77.32
2022-12-08T05:54:31.251Z,77.67
2022-12-08T05:56:57.802Z,78.22
2022-12-08T05:59:24.470Z,77.82
2022-12-08T06:01:51.090Z,78.40
2022-12-08T06:04:17.651Z,77.92
2022-12-08T06:06:44.206Z,77.78
2022-12-08T06:09:12.465Z,77.81
2022-12-08T06:11:39.236Z,77.58
2022-12-08T06:14:10.148Z,78.12
2022-12-08T06:16:36.645Z,77.53
2022-12-08T06:19:03.292Z,78.44
2022-12-08T06:21:29.914Z,77.66
2022-12-08T06:23:56.486Z,78.08
2022-12-08T06:26:23.660Z,77.94
2022-12-08T06:28:50.367Z,77.20
2022-12-08T06:31:20.067Z,77.57
2022-12-08T06:33:47.487Z,77.35
2022-12-08T06:36:16.709Z,77.86
2022-12-08T06:38:44.052Z,77.76
2022-12-08T06:41:12.088Z,77.29
2022-12-08T06:43:38.767Z,77.66
2022-12-08T06:46:07.865Z,77.99
2022-12-08T06:48:34.740Z,77.37
2022-12-08T06:51:12.331Z,78.23
2022-12-08T06:53:39.577Z,77.38
2022-12-08T06:56:07.297Z,78.03
2022-12-08T06:58:35.022Z,77.78
2022-12-08T07:01:08.412Z,77.56
2022-12-08T07:03:36.159Z,77.43
2022-12-08T07:06:04.291Z,77.78
2022-12-08T07:08:32.611Z,77.84
2022-12-08T07:10:59.580Z,77.95
2022-12-08T07:13:26.309Z,77.86
2022-12-08T07:15:52.878Z,78.19
2022-12-08T07:18:19.411Z,78.66
2022-12-08T07:20:46.019Z,77.84
2022-12-08T07:23:12.636Z,77.99
2022-12-08T07:25:39.237Z,77.70
2022-12-08T07:28:11.315Z,77.94
2022-12-08T07:30:39.068Z,77.89
2022-12-08T07:33:06.653Z,78.11
2022-12-08T07:35:35.068Z,77.61
2022-12-08T07:38:02.027Z,78.75
2022-12-08T07:40:28.620Z,78.16
2022-12-08T07:42:55.278Z,78.40
2022-12-08T07:45:23.663Z,78.66
2022-12-08T07:47:54.801Z,77.82
2022-12-08T07:50:21.315Z,78.29
2022-12-08T07:52:48.883Z,77.94
2022-12-08T07:55:15.432Z,77.86
2022-12-08T07:57:42.373Z,78.38
2022-12-08T08:00:10.906Z,78.30
2022-12-08T08:02:37.571Z,77.91
2022-12-08T08:05:04.557Z,78.34
2022-12-08T08:07:31.642Z,78.25
2022-12-08T08:09:58.296Z,78.22
2022-12-08T08:12:32.798Z,78.40
2022-12-08T08:15:01.147Z,78.62
2022-12-08T08:17:28.995Z,77.89
2022-12-08T08:19:55.842Z,78.77
2022-12-08T08:22:22.428Z,78.40
2022-12-08T08:24:48.959Z,78.26
2022-12-08T08:27:15.494Z,77.52
2022-12-08T08:29:42.120Z,77.55
2022-12-08T08:32:08.861Z,78.20
2022-12-08T08:34:35.399Z,77.12
2022-12-08T08:37:02.039Z,76.95
2022-12-08T08:39:30.192Z,76.65
2022-12-08T08:41:56.718Z,75.33
2022-12-08T08:44:23.586Z,75.50
2022-12-08T08:46:50.181Z,76.39
2022-12-08T08:49:16.798Z,76.17
2022-12-08T08:51:43.853Z,75.22
2022-12-08T08:54:10.625Z,76.35
2022-12-08T08:56:37.192Z,75.47
2022-12-08T08:59:04.156Z,75.40
2022-12-08T09:01:31.010Z,75.68
2022-12-08T09:03:58.213Z,75.11
2022-12-08T09:06:25.963Z,73.13
2022-12-08T09:08:52.630Z,72.16
2022-12-08T09:11:19.216Z,70.97
2022-12-08T09:13:50.278Z,70.13
2022-12-08T09:16:18.146Z,70.21
2022-12-08T09:18:44.923Z,69.62
2022-12-08T09:21:16.571Z,68.80
2022-12-08T09:23:43.701Z,68.43
2022-12-08T09:26:10.335Z,67.82
2022-12-08T09:28:37.459Z,66.50
2022-12-08T09:31:04.487Z,65.98
2022-12-08T09:33:31.630Z,64.18
2022-12-08T09:36:02.781Z,63.64
2022-12-08T09:38:29.354Z,62.86
2022-12-08T09:40:56.357Z,61.16
2022-12-08T09:43:53.148Z,61.01
2022-12-08T09:46:20.812Z,60.15
2022-12-08T09:48:55.741Z,57.56
2022-12-08T09:51:25.433Z,57.93
2022-12-08T09:53:56.683Z,56.48
2022-12-08T09:56:26.956Z,55.89
2022-12-08T09:58:58.329Z,54.99
2022-12-08T10:01:30.190Z,54.13
2022-12-08T10:03:57.149Z,53.81
2022-12-08T10:17:49.204Z,48.77
2022-12-08T10:20:20.115Z,49.14
2022-12-08T10:22:53.267Z,48.56
2022-12-08T10:25:28.155Z,48.45
2022-12-08T10:27:55.173Z,48.63
2022-12-08T10:30:22.350Z,48.07
2022-12-08T10:32:51.372Z,47.57
2022-12-08T10:35:19.858Z,46.76
2022-12-08T10:38:06.388Z,45.51
2022-12-08T10:40:43.801Z,46.37
2022-12-08T10:43:17.637Z,47.54
2022-12-08T10:45:45.058Z,47.38
2022-12-08T10:53:32.316Z,51.21
2022-12-08T11:14:29.548Z,54.35
2022-12-08T11:17:04.777Z,54.91
2022-12-08T11:19:31.596Z,54.81
2022-12-08T11:21:58.149Z,55.04
2022-12-08T11:24:28.616Z,55.76
2022-12-08T11:27:04.342Z,58.05
2022-12-08T11:29:33.849Z,56.85
2022-12-08T11:32:11.349Z,57.09
2022-12-08T11:34:45.862Z,56.48
2022-12-08T11:37:37.444Z,57.44
2022-12-08T11:40:08.980Z,58.64
2022-12-08T11:42:44.250Z,58.08
2022-12-08T11:45:20.217Z,56.58
2022-12-08T11:47:55.977Z,56.76
2022-12-08T11:50:31.655Z,56.60
2022-12-08T11:52:59.841Z,57.72
2022-12-08T11:55:50.011Z,58.06
2022-12-08T11:58:22.836Z,58.62
2022-12-08T12:00:50.113Z,57.64
2022-12-08T12:03:40.569Z,58.18
2022-12-08T12:17:43.584Z,59.79
2022-12-08T12:20:19.569Z,59.88
2022-12-08T12:22:52.201Z,59.67
2022-12-08T12:25:23.707Z,59.68
2022-12-08T12:27:57.156Z,60.08
2022-12-08T12:30:26.652Z,60.33
2022-12-08T12:32:58.263Z,60.67
2022-12-08T12:35:33.055Z,60.58
2022-12-08T12:38:25.464Z,61.11
2022-12-08T12:41:01.176Z,61.00
2022-12-08T12:43:33.354Z,60.78
2022-12-08T12:49:38.942Z,59.68
2022-12-08T12:57:38.624Z,60.95
2022-12-08T13:05:32.232Z,61.36
2022-12-08T13:08:03.598Z,62.09
2022-12-08T13:10:36.607Z,62.31
2022-12-08T13:18:34.213Z,62.27
2022-12-08T13:21:15.970Z,62.83
2022-12-08T13:23:50.484Z,62.20
2022-12-08T13:37:00.212Z,63.60
2022-12-08T13:39:32.549Z,62.69
2022-12-08T13:42:05.682Z,63.40
2022-12-08T13:47:41.431Z,64.04
2022-12-08T13:52:33.071Z,63.22
2022-12-08T13:54:35.413Z,64.42
2022-12-08T13:57:00.011Z,64.34
2022-12-08T13:59:10.081Z,64.61
2022-12-08T14:01:45.127Z,64.79
2022-12-08T14:04:54.566Z,64.53
2022-12-08T14:07:05.523Z,64.32
2022-12-08T14:09:36.843Z,64.45
2022-12-08T14:12:08.558Z,64.38
2022-12-08T14:15:02.436Z,64.69
2022-12-08T14:17:29.440Z,64.27
2022-12-08T14:22:37.069Z,64.77
2022-12-08T14:25:05.494Z,64.58
2022-12-08T14:27:35.089Z,64.62
2022-12-08T14:30:05.186Z,65.64
2022-12-08T14:32:34.894Z,65.42
2022-12-08T14:37:43.479Z,65.42
2022-12-08T14:45:50.774Z,66.47
2022-12-08T14:48:20.960Z,66.25
2022-12-08T14:51:04.459Z,65.52
2022-12-08T14:53:41.812Z,65.39
2022-12-08T14:56:17.694Z,66.19
2022-12-08T14:58:45.013Z,66.28
2022-12-08T15:01:17.092Z,66.23
2022-12-08T15:03:50.428Z,65.75
2022-12-08T15:06:20.626Z,66.52
2022-12-08T15:08:55.278Z,66.81
2022-12-08T15:13:57.895Z,66.24
2022-12-08T15:19:16.596Z,66.83
2022-12-08T15:21:44.622Z,67.11
2022-12-08T15:24:13.039Z,67.00
2022-12-08T15:26:44.487Z,66.57
2022-12-08T15:29:19.167Z,67.18
2022-12-08T15:31:45.834Z,66.40
2022-12-08T15:34:12.423Z,67.01
2022-12-08T15:36:40.043Z,66.64
2022-12-08T15:39:19.295Z,66.79
2022-12-08T15:41:45.808Z,67.36
2022-12-08T15:44:12.362Z,67.50
2022-12-08T15:46:38.911Z,66.92
2022-12-08T15:49:05.541Z,68.00
2022-12-08T15:51:36.441Z,67.25
2022-12-08T15:54:02.996Z,67.19
2022-12-08T15:56:29.644Z,67.96
2022-12-08T15:58:57.678Z,67.63
2022-12-08T16:01:24.923Z,68.42
2022-12-08T16:12:22.906Z,68.73
2022-12-08T16:17:37.972Z,68.90
2022-12-08T16:20:07.468Z,68.29
2022-12-08T16:25:22.563Z,68.12
2022-12-08T16:28:36.960Z,68.48
2022-12-08T16:30:38.850Z,69.14
2022-12-08T16:33:05.496Z,68.31
2022-12-08T16:35:32.064Z,68.43
2022-12-08T16:37:58.692Z,68.55
2022-12-08T16:40:25.405Z,68.74
2022-12-08T16:42:51.957Z,69.12
2022-12-08T16:45:23.350Z,69.44
2022-12-08T16:50:29.560Z,69.04
2022-12-08T16:53:00.390Z,69.33
2022-12-08T16:55:27.265Z,69.49
2022-12-08T16:57:54.341Z,69.06
2022-12-08T17:00:23.966Z,69.55
2022-12-08T17:02:51.386Z,69.38
2022-12-08T17:05:20.129Z,69.34
2022-12-08T17:07:48.721Z,69.45
2022-12-08T17:10:18.872Z,69.71
2022-12-08T17:12:46.436Z,69.54
2022-12-08T17:15:17.488Z,69.98
2022-12-08T17:17:44.133Z,69.76
2022-12-08T17:20:15.052Z,70.17
2022-12-08T17:22:41.859Z,70.05
2022-12-08T17:25:09.586Z,70.11
2022-12-08T17:27:37.034Z,69.51
2022-12-08T17:30:05.454Z,70.14
2022-12-08T17:32:32.327Z,70.14
2022-12-08T17:34:58.978Z,70.13
2022-12-08T17:37:25.616Z,70.08
2022-12-08T17:39:52.171Z,70.21
2022-12-08T17:42:18.711Z,70.17
2022-12-08T17:44:46.685Z,70.32
2022-12-08T17:47:13.302Z,70.09
2022-12-08T17:49:39.942Z,69.71
2022-12-08T17:52:06.976Z,70.30
2022-12-08T17:54:34.012Z,70.28
2022-12-08T17:57:00.805Z,69.60
2022-12-08T17:59:28.846Z,69.99
2022-12-08T18:01:57.134Z,70.27
2022-12-08T18:04:25.402Z,70.28
2022-12-08T18:06:52.363Z,70.73
2022-12-08T18:09:19.263Z,70.77
2022-12-08T18:11:46.713Z,70.79
2022-12-08T18:14:14.229Z,70.93
2022-12-08T18:16:44.025Z,70.79
2022-12-08T18:19:12.462Z,70.66
2022-12-08T18:21:39.679Z,70.60
2022-12-08T18:24:07.268Z,70.78
2022-12-08T18:26:33.963Z,71.15
2022-12-08T18:29:00.860Z,71.05
2022-12-08T18:31:27.603Z,71.01
2022-12-08T18:33:54.235Z,70.72
2022-12-08T18:36:24.487Z,70.45
2022-12-08T18:38:52.097Z,70.90
2022-12-08T18:41:24.582Z,70.98
2022-12-08T18:43:52.486Z,71.20
2022-12-08T18:46:19.077Z,71.14
2022-12-08T18:48:48.551Z,70.76
2022-12-08T18:51:17.915Z,70.99
2022-12-08T18:53:45.169Z,70.92
2022-12-08T18:56:29.943Z,71.07
2022-12-08T18:59:03.141Z,71.23
2022-12-08T19:01:32.860Z,71.15
2022-12-08T19:06:47.657Z,71.35
2022-12-08T19:09:14.328Z,71.15
2022-12-08T19:11:41.755Z,71.45
2022-12-08T19:14:08.772Z,71.36
2022-12-08T19:16:35.626Z,71.29
2022-12-08T19:19:02.772Z,71.83
2022-12-08T19:21:29.882Z,71.56
2022-12-08T19:23:58.440Z,71.46
2022-12-08T19:26:26.477Z,71.60
2022-12-08T19:28:53.116Z,71.60
2022-12-08T19:31:20.233Z,71.54
2022-12-08T19:33:46.879Z,71.19
2022-12-08T19:36:17.910Z,71.77
2022-12-08T19:39:04.911Z,71.28
2022-12-08T19:41:51.926Z,71.57
2022-12-08T19:44:43.696Z,71.88
2022-12-08T19:47:10.360Z,71.65
2022-12-08T19:49:37.519Z,71.26
2022-12-08T19:52:04.875Z,71.19
2022-12-08T19:54:31.631Z,71.09
2022-12-08T19:56:58.519Z,71.33
2022-12-08T19:59:26.476Z,71.93
2022-12-08T20:01:55.883Z,71.43
2022-12-08T20:04:23.976Z,71.86
2022-12-08T20:06:51.897Z,71.98
2022-12-08T20:09:19.498Z,71.16
2022-12-08T20:11:46.086Z,71.87
2022-12-08T20:14:12.883Z,71.34
2022-12-08T20:16:41.729Z,71.15
2022-12-08T20:19:09.106Z,72.03
2022-12-08T20:21:35.676Z,71.65
2022-12-08T20:24:02.188Z,71.87
2022-12-08T20:26:28.734Z,72.27
2022-12-08T20:28:55.303Z,72.16
2022-12-08T20:31:26.118Z,71.52
2022-12-08T20:33:52.949Z,72.23
2022-12-08T20:36:21.744Z,71.64
2022-12-08T20:38:51.605Z,71.63
2022-12-08T20:41:19.598Z,71.61
2022-12-08T20:43:48.027Z,71.96
2022-12-08T20:46:16.455Z,72.08
2022-12-08T20:48:44.195Z,72.44
2022-12-08T20:51:16.751Z,72.20
2022-12-08T20:53:43.805Z,72.76
2022-12-08T20:56:16.499Z,72.78
2022-12-08T20:58:43.298Z,72.45
2022-12-08T21:01:12.319Z,72.54
2022-12-08T21:03:39.862Z,73.07
2022-12-08T21:06:07.467Z,72.03
2022-12-08T21:08:34.847Z,72.04
2022-12-08T21:11:02.626Z,72.64
2022-12-08T21:13:29.524Z,72.35
2022-12-08T21:15:56.426Z,72.64
2022-12-08T21:18:23.840Z,72.73
2022-12-08T21:20:51.653Z,72.49
2022-12-08T21:23:19.165Z,72.56
2022-12-08T21:25:47.263Z,72.59
2022-12-08T21:28:14.179Z,72.25
2022-12-08T21:30:41.965Z,72.62
2022-12-08T21:33:09.636Z,72.62
2022-12-08T21:35:36.987Z,72.80
2022-12-08T21:38:06.447Z,72.92
2022-12-08T21:40:35.234Z,72.76
2022-12-08T21:43:03.493Z,72.11
2022-12-08T21:45:30.494Z,72.14
2022-12-08T21:47:59.329Z,72.74
2022-12-08T21:50:26.586Z,71.96
2022-12-08T21:52:53.248Z,71.98
2022-12-08T21:55:20.429Z,72.19
2022-12-08T21:57:47.492Z,72.16
2022-12-08T22:00:16.966Z,72.42
2022-12-08T22:02:44.258Z,72.94
2022-12-08T22:05:11.562Z,72.45
2022-12-08T22:07:39.983Z,72.44
2022-12-08T22:10:08.492Z,72.02
2022-12-08T22:12:36.781Z,72.82
2022-12-08T22:15:05.807Z,72.85
2022-12-08T22:17:37.263Z,72.86
2022-12-08T22:20:06.625Z,73.18
2022-12-08T22:22:34.895Z,72.98
2022-12-08T22:25:04.035Z,72.67
2022-12-08T22:27:31.203Z,72.77
2022-12-08T22:29:57.883Z,72.64
2022-12-08T22:32:24.814Z,72.40
2022-12-08T22:34:51.576Z,73.54
2022-12-08T22:37:18.250Z,72.78
2022-12-08T22:39:45.003Z,73.18
2022-12-08T22:42:11.659Z,73.07
2022-12-08T22:44:38.460Z,72.67
2022-12-08T22:47:05.133Z,73.31
2022-12-08T22:49:31.816Z,73.22
2022-12-08T22:51:58.577Z,73.36
2022-12-08T22:54:25.373Z,73.22
2022-12-08T22:56:51.946Z,73.47
2022-12-08T22:59:18.585Z,72.98
2022-12-08T23:01:45.363Z,73.49
2022-12-08T23:04:17.515Z,73.72
2022-12-08T23:06:44.836Z,72.97
2022-12-08T23:09:11.965Z,73.08
2022-12-08T23:11:38.728Z,72.77
2022-12-08T23:14:05.314Z,72.91
2022-12-08T23:16:33.628Z,72.75
2022-12-08T23:19:00.383Z,73.50
2022-12-08T23:21:27.114Z,73.12
2022-12-08T23:23:53.974Z,74.07
2022-12-08T23:26:23.869Z,73.51
2022-12-08T23:28:51.102Z,73.19
2022-12-08T23:31:17.868Z,73.53
2022-12-08T23:33:44.772Z,73.81
2022-12-08T23:36:12.983Z,74.12
2022-12-08T23:38:39.522Z,74.81
2022-12-08T23:41:08.180Z,74.36
2022-12-08T23:43:35.414Z,75.45
2022-12-08T23:46:02.761Z,74.66
2022-12-08T23:48:29.698Z,74.95
2022-12-08T23:50:57.158Z,74.99
2022-12-08T23:53:24.005Z,74.14
2022-12-08T23:55:53.270Z,74.74
2022-12-08T23:58:21.187Z,75.04
